Time;durP1;ratioP1;P1;durP2;ratioP2;P2;SDS_P1;SDS_P2;PMS_P1;PMS_P2;Temp;Humidity;BMP_temperature;BMP_pressure;BME280_temperature;BME280_humidity;BME280_pressure;Samples;Min_cycle;Max_cycle;Signal;HPM_P1;HPM_P2
2023/09/30 00:01:52;;;;;;;39.70;6.93;;;;;;;;;;5099139;28;20047;-69
2023/09/30 00:04:18;;;;;;;37.45;6.25;;;;;;;;;;5134145;28;20051;-68
2023/09/30 00:06:44;;;;;;;31.85;6.53;;;;;;;;;;5133741;28;20360;-69
2023/09/30 00:09:11;;;;;;;35.83;6.53;;;;;;;;;;5133882;28;20371;-70
2023/09/30 00:11:37;;;;;;;;;;;;;;;;;;5099878;28;20495;-69
2023/09/30 00:14:04;;;;;;;37.90;5.90;;;;;;;;;;5134580;28;20015;-69
2023/09/30 00:16:30;;;;;;;31.70;5.10;;;;;;;;;;5134727;28;20125;-70
2023/09/30 00:18:58;;;;;;;29.80;5.72;;;;;;;;;;5115442;28;20379;-69
2023/09/30 00:21:24;;;;;;;28.50;4.97;;;;;;;;;;5117352;27;20054;-70
2023/09/30 00:23:50;;;;;;;43.67;6.33;;;;;;;;;;5119627;27;20050;-70
2023/09/30 00:26:16;;;;;;;35.00;5.53;;;;;;;;;;5137890;27;20394;-70
2023/09/30 00:28:42;;;;;;;34.38;5.93;;;;;;;;;;5119579;27;20047;-69
2023/09/30 00:31:09;;;;;;;27.25;4.82;;;;;;;;;;5102361;27;20059;-69
2023/09/30 00:33:36;;;;;;;34.50;5.70;;;;;;;;;;5138476;27;20054;-69
2023/09/30 00:36:06;;;;;;;41.97;5.65;;;;;;;;;;5137637;27;20086;-68
2023/09/30 00:38:32;;;;;;;29.50;5.63;;;;;;;;;;5137672;27;20054;-69
2023/09/30 00:40:58;;;;;;;38.95;6.18;;;;;;;;;;5137462;27;20039;-69
2023/09/30 00:43:24;;;;;;;31.52;5.70;;;;;;;;;;5137492;27;20047;-69
2023/09/30 00:46:05;;;;;;;37.67;7.15;;;;;;;;;;5137444;27;20126;-69
2023/09/30 00:48:32;;;;;;;39.03;6.65;;;;;;;;;;5137968;27;20043;-69
2023/09/30 00:50:58;;;;;;;;;;;;;;;;;;5138101;27;20047;-69
2023/09/30 00:53:24;;;;;;;30.57;5.77;;;;;;;;;;5137886;27;20374;-69
2023/09/30 00:55:51;;;;;;;34.30;5.67;;;;;;;;;;5120000;27;20134;-69
2023/09/30 00:58:17;;;;;;;44.38;6.50;;;;;;;;;;5136926;27;20503;-69
2023/09/30 01:00:43;;;;;;;38.60;6.25;;;;;;;;;;5118970;27;20475;-69
2023/09/30 01:03:10;;;;;;;37.63;5.60;;;;;;;;;;5137062;27;20118;-70
2023/09/30 01:05:36;;;;;;;37.88;5.72;;;;;;;;;;5137582;27;20042;-69
2023/09/30 01:08:03;;;;;;;38.65;6.85;;;;;;;;;;5152290;27;20050;-69
2023/09/30 01:10:29;;;;;;;35.20;6.53;;;;;;;;;;5132453;27;20050;-69
2023/09/30 01:12:55;;;;;;;29.52;6.13;;;;;;;;;;5137476;27;20130;-69
2023/09/30 01:15:21;;;;;;;38.03;6.18;;;;;;;;;;5119568;27;20498;-69
2023/09/30 01:17:47;;;;;;;31.02;6.40;;;;;;;;;;5138350;27;20433;-69
2023/09/30 01:20:21;;;;;;;35.70;6.22;;;;;;;;;;5118997;27;20054;-70
2023/09/30 01:22:48;;;;;;;40.55;6.57;;;;;;;;;;5118936;27;20479;-69
2023/09/30 01:25:14;;;;;;;41.50;7.20;;;;;;;;;;5118388;27;20043;-69
2023/09/30 01:27:40;;;;;;;37.05;6.70;;;;;;;;;;5136870;27;20430;-68
2023/09/30 01:30:10;;;;;;;35.50;6.93;;;;;;;;;;5137080;27;20047;-70
2023/09/30 01:32:37;;;;;;;39.58;7.03;;;;;;;;;;5136684;27;20139;-69
2023/09/30 01:35:03;;;;;;;34.38;7.22;;;;;;;;;;5136900;27;20172;-69
2023/09/30 01:37:29;;;;;;;37.80;7.50;;;;;;;;;;5136714;27;20517;-68
2023/09/30 01:39:55;;;;;;;35.53;6.95;;;;;;;;;;5136840;27;20055;-71
2023/09/30 01:42:21;;;;;;;35.80;7.57;;;;;;;;;;5137179;27;20130;-69
2023/09/30 01:44:47;;;;;;;34.37;8.60;;;;;;;;;;5137141;27;20086;-69
2023/09/30 01:47:13;;;;;;;37.22;7.15;;;;;;;;;;5136531;27;20050;-68
2023/09/30 01:49:39;;;;;;;30.15;8.23;;;;;;;;;;5101805;27;20483;-70
2023/09/30 01:52:06;;;;;;;34.97;7.45;;;;;;;;;;5136892;27;20386;-70
2023/09/30 01:54:32;;;;;;;36.83;7.47;;;;;;;;;;5136551;27;20179;-69
2023/09/30 01:56:58;;;;;;;39.92;8.10;;;;;;;;;;5136450;27;20043;-71
2023/09/30 01:59:24;;;;;;;31.50;7.47;;;;;;;;;;5118972;27;20062;-69
2023/09/30 02:01:51;;;;;;;35.57;7.77;;;;;;;;;;5117941;27;20399;-69
2023/09/30 02:04:17;;;;;;;41.47;7.57;;;;;;;;;;5136481;27;20459;-69
2023/09/30 02:06:43;;;;;;;51.17;8.65;;;;;;;;;;5117876;27;20125;-70
2023/09/30 02:09:09;;;;;;;39.20;7.68;;;;;;;;;;5136339;27;20043;-69
2023/09/30 02:11:37;;;;;;;36.88;7.78;;;;;;;;;;5101048;27;20039;-69
2023/09/30 02:14:05;;;;;;;38.40;7.90;;;;;;;;;;5136417;27;20486;-69
2023/09/30 02:16:31;;;;;;;36.50;7.68;;;;;;;;;;5125893;27;20047;-69
2023/09/30 02:18:58;;;;;;;46.70;8.68;;;;;;;;;;5134380;27;20047;-70
2023/09/30 02:21:24;;;;;;;34.00;8.07;;;;;;;;;;5118427;27;20047;-69
2023/09/30 02:23:54;;;;;;;42.47;8.55;;;;;;;;;;5117848;27;20509;-70
2023/09/30 02:26:21;;;;;;;44.17;8.85;;;;;;;;;;5135545;27;20035;-69
2023/09/30 02:28:47;;;;;;;33.97;8.20;;;;;;;;;;5117847;27;20043;-69
2023/09/30 02:31:13;;;;;;;45.37;9.83;;;;;;;;;;5117340;27;20047;-69
2023/09/30 02:33:39;;;;;;;46.50;8.88;;;;;;;;;;5135966;27;20089;-69
2023/09/30 02:36:09;;;;;;;33.90;7.63;;;;;;;;;;5117291;27;20035;-69
2023/09/30 02:38:38;;;;;;;40.33;8.80;;;;;;;;;;5135756;27;20058;-69
2023/09/30 02:41:05;;;;;;;42.30;8.85;;;;;;;;;;5135703;27;20039;-69
2023/09/30 02:43:32;;;;;;;46.03;8.27;;;;;;;;;;5117921;27;20133;-70
2023/09/30 02:45:58;;;;;;;;;;;;;;;;;;5135591;27;20487;-69
2023/09/30 02:48:24;;;;;;;42.10;7.57;;;;;;;;;;5135978;27;19923;-69
2023/09/30 02:50:50;;;;;;;39.40;8.02;;;;;;;;;;5117274;27;20040;-69
2023/09/30 02:53:16;;;;;;;43.30;8.07;;;;;;;;;;5136048;27;20086;-69
2023/09/30 02:55:42;;;;;;;40.95;7.82;;;;;;;;;;5117145;27;20089;-69
2023/09/30 02:58:09;;;;;;;44.93;8.50;;;;;;;;;;5100094;27;20391;-69
2023/09/30 03:00:37;;;;;;;36.40;9.13;;;;;;;;;;5135237;27;20291;-70
2023/09/30 03:03:04;;;;;;;37.90;8.15;;;;;;;;;;5116808;27;20047;-69
2023/09/30 03:05:33;;;;;;;43.50;8.70;;;;;;;;;;5117088;27;20039;-69
2023/09/30 03:07:59;;;;;;;43.80;8.40;;;;;;;;;;5116705;27;20189;-69
2023/09/30 03:10:26;;;;;;;37.38;8.85;;;;;;;;;;5135102;27;20164;-69
2023/09/30 03:12:55;;;;;;;38.33;8.40;;;;;;;;;;5135119;27;20047;-69
2023/09/30 03:15:23;;;;;;;42.83;8.55;;;;;;;;;;5116758;27;20126;-69
2023/09/30 03:17:49;;;;;;;46.88;9.10;;;;;;;;;;5116559;27;20043;-68
2023/09/30 03:20:19;;;;;;;36.03;8.27;;;;;;;;;;5135063;27;20043;-70
2023/09/30 03:22:48;;;;;;;42.75;8.77;;;;;;;;;;5135519;27;20287;-69
2023/09/30 03:25:17;;;;;;;47.90;10.05;;;;;;;;;;5135406;27;20046;-69
2023/09/30 03:27:44;;;;;;;42.47;8.98;;;;;;;;;;5157003;27;20067;-70
2023/09/30 03:30:11;;;;;;;43.90;10.18;;;;;;;;;;5144593;27;20047;-70
2023/09/30 03:32:38;;;;;;;36.50;9.18;;;;;;;;;;5135797;27;20055;-70
2023/09/30 03:35:10;;;;;;;45.45;10.07;;;;;;;;;;5134907;27;20051;-70
2023/09/30 03:37:37;;;;;;;47.70;9.52;;;;;;;;;;5117353;27;20097;-69
2023/09/30 03:40:19;;;;;;;52.50;9.40;;;;;;;;;;5116364;27;20062;-69
2023/09/30 03:42:45;;;;;;;47.63;10.10;;;;;;;;;;5116169;28;20582;-68
2023/09/30 03:45:12;;;;;;;48.67;9.70;;;;;;;;;;5134835;28;20171;-69
2023/09/30 03:47:38;;;;;;;39.58;9.50;;;;;;;;;;5134665;28;20300;-70
2023/09/30 03:50:05;;;;;;;38.28;9.25;;;;;;;;;;5116579;28;20484;-68
2023/09/30 03:52:33;;;;;;;47.92;10.20;;;;;;;;;;5134743;28;20050;-69
2023/09/30 03:55:01;;;;;;;45.60;9.52;;;;;;;;;;5135043;27;20051;-68
2023/09/30 03:57:27;;;;;;;44.45;10.23;;;;;;;;;;5138492;27;20054;-69
2023/09/30 03:59:53;;;;;;;57.25;10.30;;;;;;;;;;5139446;27;20097;-70
2023/09/30 04:02:20;;;;;;;43.58;10.18;;;;;;;;;;5120402;27;20055;-69
2023/09/30 04:04:46;;;;;;;40.45;10.70;;;;;;;;;;5120685;27;20055;-69
2023/09/30 04:07:13;;;;;;;40.90;10.07;;;;;;;;;;5120676;27;20040;-69
2023/09/30 04:09:39;;;;;;;41.42;10.15;;;;;;;;;;5138970;27;20280;-68
2023/09/30 04:12:05;;;;;;;43.63;9.40;;;;;;;;;;5138694;27;20050;-69
2023/09/30 04:14:32;;;;;;;50.17;10.27;;;;;;;;;;5138093;27;20498;-68
2023/09/30 04:16:58;;;;;;;41.08;10.57;;;;;;;;;;5138593;27;20074;-69
2023/09/30 04:19:24;;;;;;;37.15;9.98;;;;;;;;;;5138668;27;20043;-69
2023/09/30 04:21:50;;;;;;;45.22;11.23;;;;;;;;;;5138925;27;20054;-68
2023/09/30 04:24:18;;;;;;;43.97;10.40;;;;;;;;;;5138774;27;20050;-69
2023/09/30 04:26:45;;;;;;;45.35;10.85;;;;;;;;;;5138096;27;20378;-70
2023/09/30 04:29:12;;;;;;;42.38;10.63;;;;;;;;;;5138252;27;20047;-69
2023/09/30 04:31:39;;;;;;;45.00;11.32;;;;;;;;;;5137493;27;20082;-69
2023/09/30 04:34:05;;;;;;;43.40;11.25;;;;;;;;;;5138655;27;20475;-69
2023/09/30 04:36:35;;;;;;;42.60;11.80;;;;;;;;;;5148085;27;20031;-69
2023/09/30 04:39:01;;;;;;;53.65;11.50;;;;;;;;;;5152844;27;20070;-69
2023/09/30 04:41:28;;;;;;;48.75;12.75;;;;;;;;;;5103420;27;20047;-69
2023/09/30 04:43:54;;;;;;;44.33;11.45;;;;;;;;;;5086705;27;20074;-68
2023/09/30 04:46:23;;;;;;;44.20;12.15;;;;;;;;;;5119829;27;20047;-69
2023/09/30 04:48:51;;;;;;;52.58;12.82;;;;;;;;;;5138511;27;20051;-70
2023/09/30 04:51:18;;;;;;;49.50;12.48;;;;;;;;;;5137679;27;20051;-70
2023/09/30 04:53:47;;;;;;;50.75;13.27;;;;;;;;;;5138334;27;20043;-68
2023/09/30 04:56:14;;;;;;;47.75;12.95;;;;;;;;;;5137713;27;20039;-68
2023/09/30 04:58:40;;;;;;;47.22;12.85;;;;;;;;;;5118909;27;20517;-68
2023/09/30 05:01:09;;;;;;;45.57;14.13;;;;;;;;;;5137870;27;20039;-68
2023/09/30 05:03:35;;;;;;;59.20;13.57;;;;;;;;;;5119345;27;20284;-69
2023/09/30 05:06:02;;;;;;;56.08;13.25;;;;;;;;;;5137257;27;20043;-67
2023/09/30 05:08:28;;;;;;;;;;;;;;;;;;5101242;27;20062;-70
2023/09/30 05:10:55;;;;;;;49.87;13.90;;;;;;;;;;5137451;27;20294;-69
2023/09/30 05:13:23;;;;;;;50.53;13.20;;;;;;;;;;5137233;27;20047;-69
2023/09/30 05:15:51;;;;;;;43.10;13.45;;;;;;;;;;5102920;27;20054;-69
2023/09/30 05:18:18;;;;;;;42.05;13.40;;;;;;;;;;5137845;27;20043;-71
2023/09/30 05:20:44;;;;;;;;;;;;;;;;;;5102060;27;20046;-69
2023/09/30 05:23:12;;;;;;;51.70;13.50;;;;;;;;;;5136703;27;19972;-69
2023/09/30 05:25:39;;;;;;;61.50;15.23;;;;;;;;;;5136697;27;20051;-69
2023/09/30 05:28:06;;;;;;;56.05;15.73;;;;;;;;;;5136705;27;20134;-69
2023/09/30 05:30:35;;;;;;;58.22;16.52;;;;;;;;;;5136860;27;20050;-69
2023/09/30 05:33:03;;;;;;;50.72;14.38;;;;;;;;;;5137091;27;20055;-69
2023/09/30 05:35:29;;;;;;;60.50;15.55;;;;;;;;;;5136566;27;20086;-71
2023/09/30 05:37:55;;;;;;;57.80;14.13;;;;;;;;;;5136888;27;20043;-70
2023/09/30 05:40:23;;;;;;;55.50;14.38;;;;;;;;;;5136743;27;20051;-69
2023/09/30 05:42:49;;;;;;;58.00;15.55;;;;;;;;;;5137279;27;20051;-69
2023/09/30 05:45:16;;;;;;;60.08;15.07;;;;;;;;;;5119611;27;20471;-68
2023/09/30 05:47:42;;;;;;;59.63;16.33;;;;;;;;;;5119384;27;20035;-69
2023/09/30 05:50:09;;;;;;;56.35;16.02;;;;;;;;;;5137363;27;20142;-68
2023/09/30 05:52:35;;;;;;;53.97;16.73;;;;;;;;;;5136264;27;20454;-69
2023/09/30 05:55:02;;;;;;;62.57;16.33;;;;;;;;;;5136251;27;20047;-68
2023/09/30 05:57:29;;;;;;;53.72;15.63;;;;;;;;;;5136365;27;20088;-69
2023/09/30 05:59:55;;;;;;;62.83;16.58;;;;;;;;;;5136157;27;20043;-68
2023/09/30 06:02:21;;;;;;;58.05;16.17;;;;;;;;;;5118290;27;20043;-68
2023/09/30 06:04:47;;;;;;;62.00;16.52;;;;;;;;;;5117858;27;20364;-69
2023/09/30 06:07:13;;;;;;;61.60;15.95;;;;;;;;;;5135893;27;20050;-68
2023/09/30 06:09:39;;;;;;;72.50;17.83;;;;;;;;;;5136137;27;20047;-68
2023/09/30 06:12:06;;;;;;;66.18;18.02;;;;;;;;;;5117767;27;20080;-69
2023/09/30 06:14:32;;;;;;;67.22;18.15;;;;;;;;;;5135699;27;20486;-70
2023/09/30 06:16:59;;;;;;;62.80;17.10;;;;;;;;;;5117717;27;20076;-68
2023/09/30 06:19:25;;;;;;;65.80;16.90;;;;;;;;;;5117013;27;20122;-68
2023/09/30 06:21:52;;;;;;;58.75;16.92;;;;;;;;;;5135811;27;20058;-69
2023/09/30 06:24:21;;;;;;;68.47;18.15;;;;;;;;;;5117579;27;20135;-68
2023/09/30 06:26:48;;;;;;;57.60;17.83;;;;;;;;;;5135409;27;20050;-69
2023/09/30 06:29:14;;;;;;;;;;;;;;;;;;5118041;27;20054;-68
2023/09/30 06:31:40;;;;;;;58.60;16.05;;;;;;;;;;5114055;28;19948;-69
2023/09/30 06:34:07;;;;;;;64.63;18.10;;;;;;;;;;5115143;28;20062;-69
2023/09/30 06:36:33;;;;;;;72.97;18.02;;;;;;;;;;5115872;28;20046;-68
2023/09/30 06:38:59;;;;;;;63.45;18.00;;;;;;;;;;5114971;28;20115;-67
2023/09/30 06:41:25;;;;;;;61.20;18.15;;;;;;;;;;5114954;28;20039;-69
2023/09/30 06:43:51;;;;;;;58.30;17.50;;;;;;;;;;5114469;28;20064;-69
2023/09/30 06:46:18;;;;;;;58.17;16.77;;;;;;;;;;5113540;28;20043;-68
2023/09/30 06:48:44;;;;;;;61.87;17.50;;;;;;;;;;5096612;28;20059;-68
2023/09/30 06:51:15;;;;;;;64.10;17.63;;;;;;;;;;5114588;28;20123;-69
2023/09/30 06:53:41;;;;;;;77.68;18.75;;;;;;;;;;5115229;28;20047;-69
2023/09/30 06:56:08;;;;;;;68.05;20.42;;;;;;;;;;5126564;28;20048;-69
2023/09/30 06:58:34;;;;;;;66.20;18.70;;;;;;;;;;5121817;28;20392;-68
2023/09/30 07:01:01;;;;;;;67.60;18.50;;;;;;;;;;5115461;28;20383;-68
2023/09/30 07:03:27;;;;;;;65.53;19.03;;;;;;;;;;5114576;28;20100;-68
2023/09/30 07:05:54;;;;;;;67.10;19.25;;;;;;;;;;5114375;28;20096;-68
2023/09/30 07:08:23;;;;;;;73.28;19.33;;;;;;;;;;5114104;28;20491;-68
2023/09/30 07:10:49;;;;;;;68.63;20.00;;;;;;;;;;5114156;28;20099;-68
2023/09/30 07:13:17;;;;;;;68.28;19.25;;;;;;;;;;5114133;28;20059;-69
2023/09/30 07:15:43;;;;;;;66.60;20.23;;;;;;;;;;5114055;28;20044;-68
2023/09/30 07:18:11;;;;;;;72.68;21.65;;;;;;;;;;5114178;28;20052;-67
2023/09/30 07:20:37;;;;;;;73.00;21.30;;;;;;;;;;5114333;28;20051;-68
2023/09/30 07:23:03;;;;;;;73.43;21.02;;;;;;;;;;5114124;28;20039;-69
2023/09/30 07:25:31;;;;;;;71.43;22.67;;;;;;;;;;5114283;28;20047;-69
2023/09/30 07:27:58;;;;;;;75.32;21.60;;;;;;;;;;5112987;28;20596;-69
2023/09/30 07:30:24;;;;;;;69.72;20.45;;;;;;;;;;5112466;28;20058;-68
2023/09/30 07:32:51;;;;;;;73.03;21.48;;;;;;;;;;5129650;27;20051;-69
2023/09/30 07:35:17;;;;;;;;;;;;;;;;;;5134825;27;20051;-69
2023/09/30 07:37:44;;;;;;;84.95;21.48;;;;;;;;;;5134589;27;19927;-68
2023/09/30 07:40:10;;;;;;;71.03;20.70;;;;;;;;;;5134580;27;20039;-68
2023/09/30 07:42:36;;;;;;;73.03;19.33;;;;;;;;;;5134591;27;20088;-68
2023/09/30 07:45:06;;;;;;;76.93;22.27;;;;;;;;;;5134392;27;20049;-68
2023/09/30 07:47:33;;;;;;;67.88;20.90;;;;;;;;;;5134540;28;20457;-69
2023/09/30 07:50:02;;;;;;;80.15;23.10;;;;;;;;;;5134666;28;20055;-68
2023/09/30 07:52:28;;;;;;;77.63;22.05;;;;;;;;;;5116918;28;20201;-68
2023/09/30 07:54:54;;;;;;;74.63;21.80;;;;;;;;;;5115962;28;20043;-69
2023/09/30 07:57:20;;;;;;;73.03;21.73;;;;;;;;;;5134684;28;20043;-68
2023/09/30 07:59:46;;;;;;;71.50;21.77;;;;;;;;;;5134894;28;20039;-69
2023/09/30 08:02:12;;;;;;;77.72;22.63;;;;;;;;;;5135098;28;20129;-69
2023/09/30 08:04:38;;;;;;;80.20;22.70;;;;;;;;;;5144261;28;20047;-68
2023/09/30 08:07:04;;;;;;;76.03;20.98;;;;;;;;;;5143526;28;20059;-68
2023/09/30 08:09:30;;;;;;;79.28;21.92;;;;;;;;;;5134705;28;20474;-69
2023/09/30 08:11:57;;;;;;;73.38;22.65;;;;;;;;;;5135321;28;20390;-69
2023/09/30 08:14:23;;;;;;;82.55;23.27;;;;;;;;;;5135031;28;20054;-68
2023/09/30 08:16:49;;;;;;;78.22;22.08;;;;;;;;;;5134439;28;20401;-69
2023/09/30 08:19:15;;;;;;;75.40;22.05;;;;;;;;;;5116053;28;20063;-68
2023/09/30 08:21:41;;;;;;;72.05;21.67;;;;;;;;;;5116177;28;20103;-69
2023/09/30 08:24:08;;;;;;;83.95;22.67;;;;;;;;;;5134215;28;20134;-68
2023/09/30 08:26:35;;;;;;;83.30;22.58;;;;;;;;;;5099097;28;20039;-69
2023/09/30 08:29:02;;;;;;;78.13;24.23;;;;;;;;;;5134204;28;20062;-69
2023/09/30 08:31:28;;;;;;;88.05;22.98;;;;;;;;;;5133931;28;20051;-69
2023/09/30 08:33:55;;;;;;;80.28;23.85;;;;;;;;;;5115810;28;20472;-69
2023/09/30 08:36:21;;;;;;;79.88;22.00;;;;;;;;;;5116154;28;20035;-69
2023/09/30 08:38:47;;;;;;;84.27;22.40;;;;;;;;;;5115986;28;20043;-69
2023/09/30 08:41:25;;;;;;;89.80;24.20;;;;;;;;;;5116153;28;20812;-68
2023/09/30 08:43:53;;;;;;;80.50;24.60;;;;;;;;;;5137872;27;20126;-69
2023/09/30 08:46:19;;;;;;;81.60;23.67;;;;;;;;;;5137791;27;20440;-69
2023/09/30 08:48:47;;;;;;;77.30;21.07;;;;;;;;;;5102711;27;20051;-70
2023/09/30 08:51:13;;;;;;;78.20;22.45;;;;;;;;;;5119881;27;20043;-70
2023/09/30 08:53:40;;;;;;;66.15;20.55;;;;;;;;;;5137861;27;20051;-69
2023/09/30 08:56:10;;;;;;;80.45;22.55;;;;;;;;;;5119604;27;20047;-69
2023/09/30 08:58:37;;;;;;;74.50;22.63;;;;;;;;;;5120329;27;20502;-68
2023/09/30 09:01:03;;;;;;;;;;;;;;;;;;5119982;27;20039;-70
2023/09/30 09:03:29;;;;;;;79.72;22.10;;;;;;;;;;5137546;27;19978;-69
2023/09/30 09:05:56;;;;;;;72.00;22.03;;;;;;;;;;5119047;27;20078;-69
2023/09/30 09:08:23;;;;;;;73.32;22.17;;;;;;;;;;5119553;27;20050;-69
2023/09/30 09:10:57;;;;;;;75.47;23.23;;;;;;;;;;5102231;27;20055;-69
2023/09/30 09:13:23;;;;;;;73.90;21.65;;;;;;;;;;5138831;27;20089;-69
2023/09/30 09:15:50;;;;;;;74.95;21.90;;;;;;;;;;5121512;27;20047;-69
2023/09/30 09:18:32;;;;;;;76.03;21.57;;;;;;;;;;5103298;27;20051;-68
2023/09/30 09:21:11;;;;;;;68.85;20.98;;;;;;;;;;5137544;27;20288;-68
2023/09/30 09:23:41;;;;;;;69.68;21.00;;;;;;;;;;5118960;27;20448;-70
2023/09/30 09:26:08;;;;;;;65.25;20.83;;;;;;;;;;5136886;27;20051;-70
2023/09/30 09:28:44;;;;;;;67.30;21.60;;;;;;;;;;5137174;27;20395;-69
2023/09/30 09:31:22;;;;;;;73.00;20.90;;;;;;;;;;5136940;27;20047;-69
2023/09/30 09:33:49;;;;;;;66.60;21.67;;;;;;;;;;5119008;27;20084;-69
2023/09/30 09:36:15;;;;;;;74.10;21.40;;;;;;;;;;5136942;27;20043;-69
2023/09/30 09:38:54;;;;;;;66.40;20.67;;;;;;;;;;5137755;27;20047;-69
2023/09/30 09:41:20;;;;;;;67.50;22.65;;;;;;;;;;5136753;27;20089;-68
2023/09/30 09:43:53;;;;;;;69.70;21.80;;;;;;;;;;5136858;27;20039;-69
2023/09/30 09:46:19;;;;;;;72.28;21.55;;;;;;;;;;5118273;27;20050;-69
2023/09/30 09:48:47;;;;;;;69.05;21.70;;;;;;;;;;5101945;27;20051;-69
2023/09/30 09:51:14;;;;;;;57.15;18.42;;;;;;;;;;5118449;27;20055;-69
2023/09/30 09:53:41;;;;;;;56.72;19.13;;;;;;;;;;5135799;27;20395;-69
2023/09/30 09:56:11;;;;;;;63.42;19.90;;;;;;;;;;5136568;27;20043;-70
2023/09/30 09:58:38;;;;;;;71.93;20.23;;;;;;;;;;5137173;27;20051;-69
2023/09/30 10:01:05;;;;;;;;;;;;;;;;;;5136962;27;20058;-70
2023/09/30 10:03:32;;;;;;;54.95;15.40;;;;;;;;;;5101327;27;19923;-70
2023/09/30 10:05:58;;;;;;;57.40;17.25;;;;;;;;;;5118182;27;20132;-70
2023/09/30 10:08:30;;;;;;;52.35;16.23;;;;;;;;;;5118250;27;20047;-70
2023/09/30 10:10:59;;;;;;;53.63;15.90;;;;;;;;;;5136282;27;20054;-70
2023/09/30 10:13:48;;;;;;;51.33;15.55;;;;;;;;;;5101109;27;20092;-69
2023/09/30 10:16:53;;;;;;;47.72;13.65;;;;;;;;;;5122654;27;20055;-70
2023/09/30 10:19:22;;;;;;;52.38;13.85;;;;;;;;;;5032548;28;20057;-70
2023/09/30 10:22:07;;;;;;;49.97;13.05;;;;;;;;;;5032654;28;20538;-69
2023/09/30 10:24:33;;;;;;;48.13;11.90;;;;;;;;;;5097812;27;20062;-69
2023/09/30 10:27:19;;;;;;;45.57;11.00;;;;;;;;;;5135095;27;20091;-70
2023/09/30 10:29:45;;;;;;;35.20;9.83;;;;;;;;;;5139873;27;20047;-70
2023/09/30 10:32:11;;;;;;;38.97;11.83;;;;;;;;;;5117407;27;20065;-70
2023/09/30 10:34:37;;;;;;;39.03;10.73;;;;;;;;;;5135649;27;20044;-70
2023/09/30 10:37:22;;;;;;;38.05;10.32;;;;;;;;;;5101046;27;20046;-70
2023/09/30 10:39:55;;;;;;;26.35;7.03;;;;;;;;;;5135549;27;20065;-71
2023/09/30 10:42:40;;;;;;;30.27;7.65;;;;;;;;;;5117181;27;20444;-70
2023/09/30 10:45:07;;;;;;;29.13;7.43;;;;;;;;;;5135354;27;20080;-70
2023/09/30 10:47:36;;;;;;;28.98;7.60;;;;;;;;;;5135089;27;20039;-70
2023/09/30 10:50:04;;;;;;;28.15;7.28;;;;;;;;;;5135312;27;20063;-68
2023/09/30 10:52:30;;;;;;;39.17;7.85;;;;;;;;;;5135673;27;20043;-70
2023/09/30 10:55:02;;;;;;;29.83;4.90;;;;;;;;;;5135243;27;20039;-70
2023/09/30 10:57:28;;;;;;;28.98;4.60;;;;;;;;;;5117787;27;20320;-70
2023/09/30 11:00:11;;;;;;;30.85;6.38;;;;;;;;;;5135073;27;20051;-70
2023/09/30 11:02:48;;;;;;;29.00;4.00;;;;;;;;;;5134893;27;20483;-70
2023/09/30 11:05:14;;;;;;;23.15;3.42;;;;;;;;;;5135020;27;20069;-70
2023/09/30 11:07:41;;;;;;;20.45;3.10;;;;;;;;;;5134882;27;20043;-69
2023/09/30 11:10:08;;;;;;;26.98;3.25;;;;;;;;;;5134839;27;20047;-70
2023/09/30 11:12:34;;;;;;;16.58;3.20;;;;;;;;;;5134755;27;20093;-69
2023/09/30 11:15:03;;;;;;;24.43;3.27;;;;;;;;;;5116780;27;20110;-71
2023/09/30 11:17:29;;;;;;;22.77;3.20;;;;;;;;;;5116672;27;20046;-70
2023/09/30 11:19:55;;;;;;;23.58;2.92;;;;;;;;;;5134800;27;20058;-70
2023/09/30 11:22:22;;;;;;;17.27;2.70;;;;;;;;;;5135218;27;20047;-70
2023/09/30 11:24:48;;;;;;;24.25;2.97;;;;;;;;;;5116682;27;20158;-70
2023/09/30 11:27:24;;;;;;;15.93;1.85;;;;;;;;;;5100534;27;20468;-70
2023/09/30 11:29:50;;;;;;;20.70;2.53;;;;;;;;;;5116564;27;20039;-69
2023/09/30 11:32:26;;;;;;;27.45;4.30;;;;;;;;;;5136006;27;20043;-70
2023/09/30 11:34:53;;;;;;;18.35;3.17;;;;;;;;;;5132609;27;20054;-70
2023/09/30 11:37:19;;;;;;;20.25;2.10;;;;;;;;;;5140616;27;20039;-70
2023/09/30 11:39:45;;;;;;;21.38;2.50;;;;;;;;;;5135396;27;20047;-68
2023/09/30 11:42:19;;;;;;;24.30;2.90;;;;;;;;;;5135021;27;20427;-69
2023/09/30 11:44:50;;;;;;;16.67;2.97;;;;;;;;;;5134712;27;20039;-70
2023/09/30 11:47:16;;;;;;;25.55;2.85;;;;;;;;;;5117319;28;20447;-69
2023/09/30 11:49:54;;;;;;;21.98;3.53;;;;;;;;;;5135174;28;20088;-69
2023/09/30 11:52:26;;;;;;;27.75;3.40;;;;;;;;;;5134819;28;20126;-70
2023/09/30 11:54:53;;;;;;;28.35;3.67;;;;;;;;;;5117144;28;20043;-70
2023/09/30 11:57:19;;;;;;;14.30;3.03;;;;;;;;;;5134759;28;20075;-70
2023/09/30 11:59:46;;;;;;;21.00;2.70;;;;;;;;;;5116307;28;20039;-70
2023/09/30 12:02:14;;;;;;;20.23;2.78;;;;;;;;;;5099621;28;20129;-70
2023/09/30 12:04:41;;;;;;;16.70;2.78;;;;;;;;;;5116606;28;20086;-71
2023/09/30 12:07:08;;;;;;;19.80;2.80;;;;;;;;;;5116189;28;20074;-71
2023/09/30 12:09:37;;;;;;;21.90;3.35;;;;;;;;;;5116034;28;20122;-70
2023/09/30 12:12:03;;;;;;;15.18;2.22;;;;;;;;;;5134812;28;20047;-69
2023/09/30 12:14:30;;;;;;;18.30;4.10;;;;;;;;;;5116110;28;20050;-70
2023/09/30 12:16:56;;;;;;;24.38;3.33;;;;;;;;;;5135359;27;20035;-70
2023/09/30 12:19:22;;;;;;;17.10;2.63;;;;;;;;;;5138609;27;20050;-69
2023/09/30 12:21:50;;;;;;;20.47;3.03;;;;;;;;;;5138551;27;20815;-70
2023/09/30 12:24:17;;;;;;;18.38;2.17;;;;;;;;;;5138342;27;20123;-71
2023/09/30 12:26:49;;;;;;;23.35;2.60;;;;;;;;;;5138128;27;20041;-69
2023/09/30 12:29:17;;;;;;;23.65;2.63;;;;;;;;;;5120069;27;20082;-70
2023/09/30 12:31:44;;;;;;;12.70;2.65;;;;;;;;;;5103062;27;20077;-69
2023/09/30 12:34:10;;;;;;;18.05;2.30;;;;;;;;;;5138401;27;20123;-70
2023/09/30 12:36:36;;;;;;;16.90;2.97;;;;;;;;;;5138442;27;20439;-70
2023/09/30 12:39:10;;;;;;;15.55;2.72;;;;;;;;;;5138095;27;20045;-69
2023/09/30 12:41:37;;;;;;;17.88;3.53;;;;;;;;;;5139682;27;20343;-70
2023/09/30 12:44:03;;;;;;;13.35;2.60;;;;;;;;;;5131070;27;20038;-69
2023/09/30 12:46:29;;;;;;;22.40;3.25;;;;;;;;;;5130800;27;20043;-67
2023/09/30 12:48:55;;;;;;;17.88;2.97;;;;;;;;;;5138264;27;20088;-70
2023/09/30 12:51:21;;;;;;;16.85;3.50;;;;;;;;;;5138755;27;20408;-70
2023/09/30 12:53:47;;;;;;;18.33;3.03;;;;;;;;;;5102460;27;20378;-69
2023/09/30 12:56:13;;;;;;;16.10;2.10;;;;;;;;;;5137871;27;20176;-70
2023/09/30 12:58:39;;;;;;;21.48;2.85;;;;;;;;;;5102391;27;20096;-70
2023/09/30 13:01:06;;;;;;;18.90;2.75;;;;;;;;;;5118953;27;20475;-72
2023/09/30 13:03:32;;;;;;;23.25;3.40;;;;;;;;;;5138397;27;20370;-71
2023/09/30 13:05:58;;;;;;;21.60;3.47;;;;;;;;;;5137657;27;20054;-70
2023/09/30 13:08:24;;;;;;;20.95;3.35;;;;;;;;;;5119807;27;20068;-70
2023/09/30 13:10:52;;;;;;;11.88;2.30;;;;;;;;;;5101967;27;20047;-71
2023/09/30 13:13:18;;;;;;;15.60;2.60;;;;;;;;;;5120164;27;20051;-71
2023/09/30 13:15:44;;;;;;;16.65;2.95;;;;;;;;;;5119269;27;20534;-69
2023/09/30 13:18:10;;;;;;;16.25;2.80;;;;;;;;;;5119199;27;20047;-69
2023/09/30 13:20:36;;;;;;;21.10;2.72;;;;;;;;;;5137830;27;20043;-70
2023/09/30 13:23:03;;;;;;;16.25;2.50;;;;;;;;;;5119353;27;20058;-69
2023/09/30 13:25:30;;;;;;;18.92;2.80;;;;;;;;;;5119504;27;20054;-70
2023/09/30 13:27:55;;;;;;;;;;;;;;;;;;5137270;27;20139;-69
2023/09/30 13:30:22;;;;;;;13.73;2.55;;;;;;;;;;5136968;27;20373;-69
2023/09/30 13:32:48;;;;;;;24.17;2.83;;;;;;;;;;5118946;27;20070;-70
2023/09/30 13:35:15;;;;;;;18.15;2.88;;;;;;;;;;5118867;27;20101;-70
2023/09/30 13:37:41;;;;;;;15.13;3.08;;;;;;;;;;5102611;27;20406;-71
2023/09/30 13:40:11;;;;;;;20.70;2.85;;;;;;;;;;5137793;27;20107;-69
2023/09/30 13:42:37;;;;;;;25.65;2.90;;;;;;;;;;5137642;27;20078;-70
2023/09/30 13:45:04;;;;;;;18.90;2.72;;;;;;;;;;5119294;27;20050;-70
2023/09/30 13:47:30;;;;;;;18.17;2.72;;;;;;;;;;5136688;27;20055;-69
2023/09/30 13:49:56;;;;;;;17.73;2.53;;;;;;;;;;5137578;27;20047;-69
2023/09/30 13:52:22;;;;;;;19.73;2.85;;;;;;;;;;5120155;27;20509;-70
2023/09/30 13:54:48;;;;;;;17.27;2.65;;;;;;;;;;5124040;27;20039;-69
2023/09/30 13:57:14;;;;;;;16.98;2.50;;;;;;;;;;5121351;27;20039;-69
2023/09/30 13:59:41;;;;;;;20.75;2.60;;;;;;;;;;5119574;27;20047;-69
2023/09/30 14:02:08;;;;;;;21.48;2.92;;;;;;;;;;5136837;27;20043;-70
2023/09/30 14:04:36;;;;;;;15.48;2.47;;;;;;;;;;5136471;27;20528;-70
2023/09/30 14:07:03;;;;;;;15.43;2.50;;;;;;;;;;5136866;27;20075;-69
2023/09/30 14:09:29;;;;;;;19.30;3.60;;;;;;;;;;5136668;27;20058;-69
2023/09/30 14:11:55;;;;;;;19.83;3.03;;;;;;;;;;5136809;27;20130;-70
2023/09/30 14:14:21;;;;;;;18.65;2.97;;;;;;;;;;5136875;27;20058;-69
2023/09/30 14:16:47;;;;;;;20.25;3.72;;;;;;;;;;5135934;27;20039;-70
2023/09/30 14:19:14;;;;;;;21.88;3.25;;;;;;;;;;5136883;27;20424;-70
2023/09/30 14:21:43;;;;;;;18.98;3.28;;;;;;;;;;5136165;27;20047;-70
2023/09/30 14:24:09;;;;;;;11.80;2.05;;;;;;;;;;5136078;27;20087;-70
2023/09/30 14:26:36;;;;;;;18.13;2.38;;;;;;;;;;5136557;27;20048;-70
2023/09/30 14:29:02;;;;;;;;;;;;;;;;;;5136195;27;20047;-70
2023/09/30 14:31:28;;;;;;;23.13;3.60;;;;;;;;;;5135548;27;19925;-70